Time;durP1;ratioP1;P1;durP2;ratioP2;P2;SDS_P1;SDS_P2;PMS_P1;PMS_P2;Temp;Humidity;BMP_temperature;BMP_pressure;BME280_temperature;BME280_humidity;BME280_pressure;Samples;Min_cycle;Max_cycle;Signal;HPM_P1;HPM_P2
2023/02/24 00:02:13;;;;;;;50.63;32.65;;;12.20;79.00;;;;;;6201950;23;20013;-77
2023/02/24 00:04:39;;;;;;;45.60;32.40;;;12.10;78.90;;;;;;6160055;23;20494;-75
2023/02/24 00:07:10;;;;;;;39.30;30.55;;;12.10;79.30;;;;;;6186513;23;20316;-76
2023/02/24 00:09:37;;;;;;;33.72;28.92;;;12.10;79.40;;;;;;6185512;23;20001;-76
2023/02/24 00:12:07;;;;;;;36.97;28.67;;;12.00;79.70;;;;;;6186065;23;20002;-75
2023/02/24 00:14:35;;;;;;;38.33;28.63;;;12.00;79.50;;;;;;6186217;23;20040;-76
2023/02/24 00:17:01;;;;;;;32.83;26.23;;;11.90;79.50;;;;;;6186398;23;20001;-76
2023/02/24 00:19:32;;;;;;;37.17;27.40;;;11.90;79.50;;;;;;6186505;23;20001;-76
2023/02/24 00:22:00;;;;;;;36.75;26.83;;;11.90;79.70;;;;;;6186180;23;20001;-76
2023/02/24 00:24:26;;;;;;;38.90;26.48;;;11.90;80.00;;;;;;6185822;23;20012;-75
2023/02/24 00:26:54;;;;;;;31.55;26.15;;;11.90;79.80;;;;;;6159586;23;20006;-76
2023/02/24 00:29:20;;;;;;;35.45;26.85;;;11.90;80.00;;;;;;6186139;23;20028;-74
2023/02/24 00:31:55;;;;;;;34.05;26.05;;;11.80;80.00;;;;;;6186403;23;20047;-76
2023/02/24 00:34:22;;;;;;;34.90;26.15;;;11.90;80.10;;;;;;6186348;23;20019;-75
2023/02/24 00:36:48;;;;;;;33.85;25.88;;;11.80;80.00;;;;;;6185922;23;20363;-76
2023/02/24 00:39:13;;;;;;;34.15;25.23;;;11.80;80.10;;;;;;6185952;23;20039;-75
2023/02/24 00:41:41;;;;;;;34.28;25.80;;;11.80;80.40;;;;;;6186157;23;20032;-76
2023/02/24 00:44:10;;;;;;;31.15;25.15;;;11.80;80.20;;;;;;6185943;23;20020;-75
2023/02/24 00:46:40;;;;;;;32.58;25.58;;;11.70;79.90;;;;;;6185258;23;20124;-76
2023/02/24 00:49:09;;;;;;;31.23;24.13;;;11.80;80.30;;;;;;6159712;23;20013;-77
2023/02/24 00:51:43;;;;;;;36.97;24.25;;;11.80;80.20;;;;;;6185582;23;20055;-75
2023/02/24 00:54:13;;;;;;;32.10;25.30;;;11.70;80.30;;;;;;6185726;23;20013;-76
2023/02/24 00:56:44;;;;;;;33.35;24.38;;;11.70;80.20;;;;;;6186035;23;20012;-76
2023/02/24 00:59:11;;;;;;;29.17;24.00;;;11.70;80.60;;;;;;6159446;23;20011;-76
2023/02/24 01:01:38;;;;;;;32.92;23.63;;;11.70;80.50;;;;;;6211231;23;20112;-77
2023/02/24 01:04:07;;;;;;;32.42;22.92;;;11.70;80.30;;;;;;6216014;23;20431;-76
2023/02/24 01:06:36;;;;;;;29.35;23.38;;;11.70;80.30;;;;;;6215982;23;20012;-76
2023/02/24 01:09:06;;;;;;;33.10;23.08;;;11.70;80.30;;;;;;6215768;23;19996;-75
2023/02/24 01:14:21;;;;;;;31.95;23.77;;;11.70;80.40;;;;;;6215935;23;20083;-75
2023/02/24 01:16:49;;;;;;;30.00;22.45;;;11.60;80.50;;;;;;6215605;23;20076;-77
2023/02/24 01:19:20;;;;;;;29.55;22.50;;;11.50;81.30;;;;;;6189118;23;20005;-75
2023/02/24 01:21:46;;;;;;;30.52;23.95;;;11.50;80.70;;;;;;6215419;23;20060;-75
2023/02/24 01:24:14;;;;;;;30.48;22.13;;;11.50;80.50;;;;;;6188740;23;20005;-74
2023/02/24 01:26:40;;;;;;;27.92;22.63;;;11.40;80.50;;;;;;6215798;23;20000;-75
2023/02/24 01:29:10;;;;;;;29.15;23.25;;;11.40;80.70;;;;;;6216114;23;20001;-75
2023/02/24 01:31:37;;;;;;;31.90;23.83;;;11.30;80.80;;;;;;6189391;23;20473;-76
2023/02/24 01:34:04;;;;;;;30.27;22.60;;;11.40;81.00;;;;;;6215276;23;20009;-75
2023/02/24 01:36:31;;;;;;;36.10;23.92;;;11.30;81.00;;;;;;6215508;23;19996;-74
2023/02/24 01:38:59;;;;;;;29.42;23.27;;;11.20;80.90;;;;;;6215632;23;20001;-75
2023/02/24 01:41:26;;;;;;;30.40;23.20;;;11.20;81.20;;;;;;6188678;23;20063;-75
2023/02/24 01:44:13;;;;;;;31.77;24.17;;;11.10;81.30;;;;;;6214934;23;20431;-75
2023/02/24 01:46:41;;;;;;;30.35;23.73;;;11.10;81.50;;;;;;6169361;23;20109;-75
2023/02/24 01:49:18;;;;;;;30.58;23.60;;;11.10;81.50;;;;;;6214867;23;19997;-74
2023/02/24 01:51:57;;;;;;;33.33;25.30;;;11.10;81.60;;;;;;6188467;23;20080;-74
2023/02/24 01:54:26;;;;;;;36.53;24.38;;;11.10;81.80;;;;;;6215178;23;20016;-75
2023/02/24 01:56:54;;;;;;;28.73;23.63;;;11.10;81.70;;;;;;6188473;23;20005;-76
2023/02/24 01:59:22;;;;;;;34.17;25.35;;;11.10;81.70;;;;;;6215225;23;20005;-75
2023/02/24 02:01:52;;;;;;;34.00;25.75;;;11.10;81.60;;;;;;6215049;23;20116;-75
2023/02/24 02:04:30;;;;;;;40.35;25.98;;;11.10;82.00;;;;;;6215343;23;20111;-75
2023/02/24 02:06:57;;;;;;;33.28;24.65;;;11.10;81.70;;;;;;6215237;23;20326;-74
2023/02/24 02:09:24;;;;;;;34.10;25.65;;;11.00;81.80;;;;;;6188520;23;20056;-75
2023/02/24 02:11:50;;;;;;;34.75;25.55;;;11.00;81.90;;;;;;6215267;23;20000;-75
2023/02/24 02:14:18;;;;;;;37.65;24.80;;;11.00;82.20;;;;;;6214917;23;20067;-76
2023/02/24 02:17:04;;;;;;;32.25;25.15;;;11.00;81.90;;;;;;6214949;23;20056;-76
2023/02/24 02:19:44;;;;;;;34.38;25.90;;;11.00;81.60;;;;;;6214707;23;20001;-75
2023/02/24 02:22:44;;;;;;;34.92;25.67;;;11.00;82.00;;;;;;6215043;23;20338;-75
2023/02/24 02:25:34;;;;;;;34.20;26.17;;;11.00;81.80;;;;;;6215096;23;20001;-75
2023/02/24 02:28:14;;;;;;;31.63;24.92;;;11.00;82.00;;;;;;6214839;23;20001;-75
2023/02/24 02:30:54;;;;;;;34.05;26.15;;;11.00;82.10;;;;;;6188303;23;20012;-75
2023/02/24 02:33:42;;;;;;;34.05;26.05;;;11.00;82.10;;;;;;6214784;23;20096;-74
2023/02/24 02:36:37;;;;;;;35.15;26.63;;;11.00;82.40;;;;;;6215056;23;20534;-74
2023/02/24 02:39:06;;;;;;;36.85;25.55;;;11.00;81.90;;;;;;6188087;23;20032;-76
2023/02/24 02:41:45;;;;;;;33.03;26.38;;;10.90;82.40;;;;;;6214879;23;20106;-75
2023/02/24 02:44:19;;;;;;;34.10;26.13;;;10.90;82.20;;;;;;6215049;23;20000;-74
2023/02/24 02:47:00;;;;;;;33.50;26.90;;;11.00;82.50;;;;;;6214676;23;20434;-74
2023/02/24 02:49:33;;;;;;;33.45;26.45;;;11.00;82.20;;;;;;6215067;23;20008;-74
2023/02/24 02:52:09;;;;;;;37.08;27.15;;;11.10;82.10;;;;;;6187863;23;20005;-75
2023/02/24 02:55:00;;;;;;;34.45;27.45;;;11.10;82.40;;;;;;6214740;23;20035;-75
2023/02/24 02:57:29;;;;;;;32.67;25.65;;;11.10;81.90;;;;;;6215475;23;19997;-75
2023/02/24 03:00:12;;;;;;;37.15;26.73;;;11.10;82.10;;;;;;6220746;23;20044;-76
2023/02/24 03:02:43;;;;;;;39.53;27.48;;;11.10;82.20;;;;;;6227625;23;20390;-75
2023/02/24 03:05:16;;;;;;;34.33;26.48;;;11.10;82.10;;;;;;6196784;23;20004;-75
2023/02/24 03:07:45;;;;;;;36.67;26.80;;;11.10;82.00;;;;;;6218406;23;20008;-76
2023/02/24 03:10:26;;;;;;;38.47;27.00;;;11.10;82.00;;;;;;6217467;23;20095;-75
2023/02/24 03:12:56;;;;;;;34.95;27.67;;;11.10;82.00;;;;;;6216454;23;20070;-75
2023/02/24 03:15:24;;;;;;;37.58;27.52;;;11.10;82.00;;;;;;6216554;23;20008;-75
2023/02/24 03:18:00;;;;;;;35.70;26.80;;;11.00;81.70;;;;;;6189462;23;20482;-76
2023/02/24 03:20:35;;;;;;;34.13;26.67;;;11.10;82.10;;;;;;6216419;23;20001;-74
2023/02/24 03:23:15;;;;;;;33.53;25.73;;;11.00;81.80;;;;;;6216458;23;20008;-75
2023/02/24 03:26:07;;;;;;;33.40;25.95;;;10.90;82.00;;;;;;6216426;23;20059;-74
2023/02/24 03:28:36;;;;;;;30.02;25.20;;;11.00;82.20;;;;;;6175468;23;20005;-75
2023/02/24 03:31:26;;;;;;;32.13;25.98;;;11.00;82.00;;;;;;6216523;23;20005;-76
2023/02/24 03:34:05;;;;;;;33.80;24.08;;;11.00;82.00;;;;;;6216048;23;20035;-75
2023/02/24 03:36:32;;;;;;;29.88;23.85;;;11.00;81.90;;;;;;6216302;23;19997;-75
2023/02/24 03:39:00;;;;;;;30.00;24.92;;;11.00;81.90;;;;;;6216578;23;20024;-75
2023/02/24 03:41:34;;;;;;;32.90;24.42;;;11.00;82.00;;;;;;6216293;23;20000;-75
2023/02/24 03:44:00;;;;;;;;;;;11.00;82.10;;;;;;6216635;23;20032;-75
2023/02/24 03:46:26;;;;;;;31.05;24.10;;;11.00;82.00;;;;;;6189624;23;20211;-75
2023/02/24 03:49:01;;;;;;;32.53;24.00;;;10.80;81.70;;;;;;6189640;23;20013;-74
2023/02/24 03:51:27;;;;;;;31.02;24.45;;;10.70;82.00;;;;;;6216346;23;20322;-74
2023/02/24 03:54:29;;;;;;;31.98;24.23;;;10.70;82.10;;;;;;6189160;23;20020;-74
2023/02/24 03:57:24;;;;;;;32.90;25.33;;;10.60;82.10;;;;;;6137737;23;20024;-72
2023/02/24 04:00:24;;;;;;;31.98;23.92;;;10.60;82.40;;;;;;6214251;23;20116;-74
2023/02/24 04:03:02;;;;;;;31.10;24.45;;;10.60;82.40;;;;;;6216098;23;20008;-75
2023/02/24 04:05:31;;;;;;;31.92;25.70;;;10.50;82.70;;;;;;6189509;23;20107;-76
2023/02/24 04:08:07;;;;;;;33.90;24.33;;;10.60;82.70;;;;;;6216323;23;20009;-75
2023/02/24 04:11:16;;;;;;;33.28;23.45;;;10.60;82.30;;;;;;6216101;23;20008;-75
2023/02/24 04:13:54;;;;;;;37.20;24.80;;;10.60;82.50;;;;;;6160636;23;20443;-74
2023/02/24 04:16:53;;;;;;;34.08;24.80;;;10.60;82.50;;;;;;6216310;23;20039;-74
2023/02/24 04:19:23;;;;;;;37.25;25.63;;;10.50;82.60;;;;;;6215186;23;20119;-75
2023/02/24 04:21:49;;;;;;;36.33;24.15;;;10.50;82.70;;;;;;6216262;23;20012;-75
2023/02/24 04:24:19;;;;;;;32.88;25.40;;;10.40;82.80;;;;;;6216309;23;20128;-75
2023/02/24 04:26:46;;;;;;;34.97;26.45;;;10.50;83.10;;;;;;6189261;23;20005;-74
2023/02/24 04:29:19;;;;;;;32.72;25.17;;;10.40;82.80;;;;;;6215931;23;20454;-75
2023/02/24 04:31:54;;;;;;;27.43;19.27;;;10.40;82.80;;;;;;6215915;23;20001;-75
2023/02/24 04:34:20;;;;;;;33.72;25.33;;;10.40;83.30;;;;;;6215871;23;20724;-74
2023/02/24 04:36:48;;;;;;;32.42;25.17;;;10.40;83.20;;;;;;6189320;23;20005;-76
2023/02/24 04:39:19;;;;;;;37.17;26.08;;;10.40;83.10;;;;;;6215985;23;20001;-76
2023/02/24 04:41:49;;;;;;;30.92;25.48;;;10.30;83.10;;;;;;6214171;23;20062;-75
2023/02/24 04:44:20;;;;;;;32.88;25.50;;;10.20;83.20;;;;;;6215897;23;20004;-75
2023/02/24 04:46:46;;;;;;;32.30;24.58;;;10.10;83.60;;;;;;6216038;23;20019;-76
2023/02/24 04:49:12;;;;;;;30.50;23.38;;;10.10;84.10;;;;;;6189331;23;20378;-75
2023/02/24 04:51:42;;;;;;;34.55;25.48;;;10.10;83.70;;;;;;6215779;23;20004;-75
2023/02/24 04:54:16;;;;;;;34.90;23.30;;;10.10;83.40;;;;;;6215643;23;20012;-75
2023/02/24 04:56:43;;;;;;;32.53;25.15;;;10.20;84.30;;;;;;6215996;23;20004;-75
2023/02/24 04:59:10;;;;;;;35.15;25.02;;;10.20;83.50;;;;;;6215814;23;20312;-75
2023/02/24 05:01:40;;;;;;;32.65;24.42;;;10.20;83.70;;;;;;6215483;23;20013;-74
2023/02/24 05:04:07;;;;;;;31.85;25.52;;;10.30;83.60;;;;;;6215852;23;20053;-75
2023/02/24 05:06:33;;;;;;;32.03;25.20;;;10.40;83.60;;;;;;6215663;23;20059;-75
2023/02/24 05:09:00;;;;;;;33.40;24.92;;;10.30;83.70;;;;;;6215571;23;20000;-75
2023/02/24 05:11:31;;;;;;;34.67;25.27;;;10.40;83.60;;;;;;6215972;23;20059;-75
2023/02/24 05:13:56;;;;;;;31.30;24.25;;;10.40;83.60;;;;;;6215046;23;20008;-76
2023/02/24 05:16:22;;;;;;;33.65;25.42;;;10.30;83.50;;;;;;6215510;23;20000;-75
2023/02/24 05:18:48;;;;;;;31.05;24.65;;;10.20;83.50;;;;;;6188950;23;20012;-75
2023/02/24 05:24:05;;;;;;;30.65;24.63;;;10.10;83.70;;;;;;6214794;23;20067;-75
2023/02/24 05:26:34;;;;;;;32.20;25.38;;;10.10;84.10;;;;;;6215643;23;20001;-74
2023/02/24 05:29:01;;;;;;;31.15;25.13;;;10.00;84.20;;;;;;6215222;23;20385;-76
2023/02/24 05:31:28;;;;;;;31.90;24.35;;;10.00;84.40;;;;;;6215379;23;20370;-75
2023/02/24 05:34:01;;;;;;;35.42;25.95;;;10.10;84.60;;;;;;6214875;23;20473;-75
2023/02/24 05:36:29;;;;;;;31.45;25.08;;;10.10;84.50;;;;;;6215239;23;19996;-76
2023/02/24 05:39:06;;;;;;;33.03;25.05;;;10.10;84.50;;;;;;6215737;23;20009;-75
2023/02/24 05:41:37;;;;;;;35.28;26.42;;;10.10;84.50;;;;;;6215403;23;20028;-75
2023/02/24 05:44:09;;;;;;;35.20;25.77;;;10.20;84.40;;;;;;6215380;23;20000;-77
2023/02/24 05:46:45;;;;;;;35.67;25.67;;;10.10;84.50;;;;;;6215280;23;20003;-76
2023/02/24 05:49:19;;;;;;;35.53;26.10;;;10.10;84.40;;;;;;6214913;23;20007;-75
2023/02/24 05:51:53;;;;;;;;;;;10.10;85.00;;;;;;6215352;23;20493;-76
2023/02/24 05:54:19;;;;;;;31.75;25.98;;;10.10;85.70;;;;;;6214875;23;19915;-76
2023/02/24 05:56:45;;;;;;;34.58;25.42;;;10.10;84.90;;;;;;6188186;23;20366;-74
2023/02/24 05:59:16;;;;;;;39.95;26.95;;;10.20;84.60;;;;;;6215024;23;20008;-77
2023/02/24 06:01:44;;;;;;;33.22;25.00;;;10.20;84.30;;;;;;6214349;23;20020;-75
2023/02/24 06:04:19;;;;;;;34.90;25.77;;;10.20;84.20;;;;;;6214922;23;20024;-77
2023/02/24 06:06:51;;;;;;;39.38;25.98;;;10.30;84.50;;;;;;6215067;23;20005;-76
2023/02/24 06:09:21;;;;;;;34.03;25.90;;;10.30;84.20;;;;;;6214955;23;20009;-76
2023/02/24 06:11:48;;;;;;;33.72;25.85;;;10.30;84.10;;;;;;6215072;23;20004;-75
2023/02/24 06:14:14;;;;;;;34.00;24.55;;;10.20;84.10;;;;;;6214675;23;20035;-75
2023/02/24 06:16:42;;;;;;;32.53;24.63;;;10.30;84.00;;;;;;6214757;23;20001;-75
2023/02/24 06:19:10;;;;;;;35.60;26.05;;;10.20;84.10;;;;;;6214726;23;20000;-75
2023/02/24 06:21:40;;;;;;;31.95;24.23;;;10.20;84.00;;;;;;6214542;23;19996;-76
2023/02/24 06:24:13;;;;;;;31.52;24.58;;;10.20;84.40;;;;;;6212537;23;20461;-76
2023/02/24 06:26:42;;;;;;;37.25;25.27;;;10.30;83.80;;;;;;6214512;23;20005;-75
2023/02/24 06:29:14;;;;;;;29.17;23.13;;;10.40;84.10;;;;;;6214466;23;19996;-75
2023/02/24 06:31:40;;;;;;;30.08;23.45;;;10.40;83.60;;;;;;6214680;23;20001;-76
2023/02/24 06:34:12;;;;;;;30.88;23.75;;;10.30;83.50;;;;;;6214365;23;20013;-77
2023/02/24 06:36:38;;;;;;;32.97;25.20;;;10.20;84.20;;;;;;6215022;23;20003;-79
2023/02/24 06:39:06;;;;;;;29.10;22.63;;;10.10;83.50;;;;;;6215516;23;20093;-76
2023/02/24 06:41:33;;;;;;;30.58;22.85;;;10.20;84.00;;;;;;6188718;23;20066;-77
2023/02/24 06:43:59;;;;;;;30.48;22.85;;;10.20;83.50;;;;;;6214380;23;20008;-75
2023/02/24 06:46:25;;;;;;;31.98;24.02;;;10.20;83.60;;;;;;6214394;23;20005;-74
2023/02/24 06:48:51;;;;;;;34.42;23.23;;;10.20;83.00;;;;;;6214316;23;20307;-73
2023/02/24 06:51:16;;;;;;;34.13;22.77;;;10.20;83.20;;;;;;6214530;23;19996;-74
2023/02/24 06:53:43;;;;;;;37.30;25.23;;;10.30;83.20;;;;;;6214031;23;20088;-72
2023/02/24 06:56:16;;;;;;;33.83;24.15;;;10.40;83.80;;;;;;6214239;23;19996;-74
2023/02/24 06:58:50;;;;;;;33.28;23.42;;;10.50;83.40;;;;;;6214475;23;20347;-72
2023/02/24 07:01:24;;;;;;;29.90;23.80;;;10.60;83.60;;;;;;6214183;23;20039;-74
2023/02/24 07:06:34;;;;;;;37.65;23.95;;;10.80;83.20;;;;;;6215699;23;20001;-70
2023/02/24 07:09:05;;;;;;;31.27;24.25;;;10.90;82.60;;;;;;6214511;23;20191;-73
2023/02/24 07:11:32;;;;;;;31.63;23.92;;;10.90;82.70;;;;;;6188263;23;20008;-73
2023/02/24 07:13:58;;;;;;;35.63;24.05;;;10.90;82.70;;;;;;6214476;23;20082;-73
2023/02/24 07:16:27;;;;;;;35.45;24.17;;;11.00;82.60;;;;;;6214736;23;20024;-74
2023/02/24 07:18:57;;;;;;;30.23;23.25;;;11.00;82.20;;;;;;6214487;23;20000;-73
2023/02/24 07:21:25;;;;;;;31.23;22.40;;;11.00;82.20;;;;;;6214640;23;20051;-71
2023/02/24 07:23:55;;;;;;;30.88;23.40;;;11.00;81.80;;;;;;6189249;23;20023;-72
2023/02/24 07:26:23;;;;;;;31.30;23.77;;;11.10;81.90;;;;;;6212875;23;20015;-71
2023/02/24 07:28:50;;;;;;;34.30;24.10;;;11.30;81.80;;;;;;6187891;23;20035;-71
2023/02/24 07:31:19;;;;;;;33.28;23.65;;;11.30;81.20;;;;;;6214775;23;20062;-73
2023/02/24 07:33:45;;;;;;;32.13;22.45;;;11.30;80.80;;;;;;6187598;23;20020;-72
2023/02/24 07:36:14;;;;;;;37.53;24.25;;;11.40;81.20;;;;;;6214324;23;20007;-71
2023/02/24 07:38:41;;;;;;;36.47;24.10;;;11.40;80.90;;;;;;6188595;23;20407;-73
2023/02/24 07:41:09;;;;;;;35.80;24.23;;;11.40;81.50;;;;;;6214774;23;20047;-71
2023/02/24 07:43:36;;;;;;;34.80;24.05;;;11.50;80.50;;;;;;6214951;23;20059;-73
2023/02/24 07:46:13;;;;;;;33.70;24.38;;;11.60;80.70;;;;;;6214936;23;20000;-71
2023/02/24 07:48:43;;;;;;;33.15;23.85;;;11.70;80.60;;;;;;6216751;23;20001;-72
2023/02/24 07:51:14;;;;;;;37.75;25.67;;;11.80;80.50;;;;;;6216576;23;20311;-72
2023/02/24 07:53:40;;;;;;;37.35;25.95;;;11.80;80.00;;;;;;6216169;23;20008;-72
2023/02/24 07:56:12;;;;;;;43.30;26.63;;;11.90;80.00;;;;;;6216311;23;20032;-72
2023/02/24 07:58:43;;;;;;;39.45;27.38;;;12.00;80.10;;;;;;6216463;23;20438;-71
2023/02/24 08:01:26;;;;;;;47.08;28.13;;;12.00;79.60;;;;;;6216096;23;20511;-71
2023/02/24 08:04:00;;;;;;;43.15;28.50;;;12.10;80.00;;;;;;6216485;23;20027;-74
2023/02/24 08:06:42;;;;;;;36.95;27.45;;;12.20;79.80;;;;;;6215944;23;20005;-72
2023/02/24 08:09:19;;;;;;;41.85;28.45;;;12.20;79.40;;;;;;6189012;23;20477;-71
2023/02/24 08:11:54;;;;;;;44.25;28.55;;;12.30;79.40;;;;;;6215412;23;20004;-71
2023/02/24 08:14:22;;;;;;;35.13;27.02;;;12.40;78.90;;;;;;6215522;23;20009;-73
2023/02/24 08:16:50;;;;;;;41.15;29.23;;;12.40;78.90;;;;;;6215754;23;20443;-72
2023/02/24 08:19:21;;;;;;;45.00;29.25;;;12.40;78.40;;;;;;6216281;23;20004;-73
2023/02/24 08:21:50;;;;;;;37.13;27.60;;;12.40;79.00;;;;;;6215749;23;20452;-74
2023/02/24 08:24:18;;;;;;;40.10;29.35;;;12.40;78.70;;;;;;6216657;23;20005;-75
2023/02/24 08:26:52;;;;;;;38.17;27.85;;;12.50;78.50;;;;;;6215295;23;20005;-75
2023/02/24 08:29:19;;;;;;;;;;;12.50;78.50;;;;;;6216128;23;20009;-74
2023/02/24 08:31:45;;;;;;;40.42;28.50;;;12.50;79.00;;;;;;6216628;23;19904;-74
2023/02/24 08:34:14;;;;;;;44.90;29.00;;;12.60;78.20;;;;;;6216063;23;20013;-74
2023/02/24 08:36:47;;;;;;;39.05;27.52;;;12.70;78.40;;;;;;6216012;23;20068;-75
2023/02/24 08:39:13;;;;;;;39.65;27.77;;;12.80;78.10;;;;;;6215955;23;19996;-76
2023/02/24 08:41:50;;;;;;;36.10;27.75;;;12.90;78.10;;;;;;6216496;23;20009;-74
2023/02/24 08:44:19;;;;;;;47.72;31.15;;;13.00;78.10;;;;;;6216122;23;20187;-73
2023/02/24 08:46:48;;;;;;;43.15;31.38;;;13.00;77.80;;;;;;6215853;23;20004;-75
2023/02/24 08:49:16;;;;;;;62.08;41.55;;;13.10;78.50;;;;;;6216275;23;20005;-77
2023/02/24 08:51:47;;;;;;;59.42;41.17;;;13.30;77.80;;;;;;6217443;23;20016;-73
2023/02/24 08:54:16;;;;;;;54.78;37.65;;;13.40;77.70;;;;;;6217773;23;20008;-75
2023/02/24 08:56:47;;;;;;;54.38;35.15;;;13.50;77.50;;;;;;6215061;23;20012;-74
2023/02/24 08:59:36;;;;;;;42.20;30.92;;;13.60;77.30;;;;;;6202717;23;20230;-73
2023/02/24 09:02:17;;;;;;;40.95;27.85;;;13.70;77.20;;;;;;6191005;23;20477;-75
2023/02/24 09:04:48;;;;;;;38.05;28.33;;;13.90;77.30;;;;;;6216336;23;20023;-74
2023/02/24 09:07:20;;;;;;;40.70;29.60;;;14.00;77.10;;;;;;6215789;23;20104;-75
2023/02/24 09:09:46;;;;;;;36.83;26.15;;;14.20;77.00;;;;;;6214536;23;20431;-76
2023/02/24 09:12:23;;;;;;;40.35;27.52;;;14.30;76.70;;;;;;6216245;23;20087;-76
2023/02/24 09:14:59;;;;;;;37.28;27.13;;;14.40;76.70;;;;;;6215300;23;20031;-76
2023/02/24 09:17:39;;;;;;;37.80;26.23;;;14.50;76.90;;;;;;6215309;23;20038;-76
2023/02/24 09:23:06;;;;;;;32.05;19.50;;;14.70;77.20;;;;;;6217109;23;20015;-76
2023/02/24 09:25:40;;;;;;;34.33;25.30;;;14.70;77.10;;;;;;6215073;23;20000;-77
2023/02/24 09:28:08;;;;;;;35.53;26.85;;;14.80;77.30;;;;;;6215174;23;20004;-77
2023/02/24 09:30:37;;;;;;;33.55;25.90;;;14.80;77.20;;;;;;6214869;23;20486;-77
2023/02/24 09:33:16;;;;;;;37.42;27.80;;;14.90;77.20;;;;;;6215259;23;20456;-76
2023/02/24 09:35:45;;;;;;;39.85;27.52;;;15.10;77.20;;;;;;6215629;23;20039;-75
2023/02/24 09:38:15;;;;;;;32.83;25.02;;;15.30;77.00;;;;;;6214146;23;20330;-77
2023/02/24 09:40:49;;;;;;;28.60;24.08;;;15.50;76.80;;;;;;6214973;23;20465;-76
2023/02/24 09:43:26;;;;;;;33.97;23.05;;;15.70;76.40;;;;;;6215053;23;20079;-77
2023/02/24 09:46:23;;;;;;;30.60;22.85;;;15.80;76.10;;;;;;6215057;23;20016;-78
2023/02/24 09:49:04;;;;;;;39.72;24.33;;;15.90;76.30;;;;;;6214762;23;20039;-76
2023/02/24 09:51:41;;;;;;;39.42;23.83;;;15.90;76.40;;;;;;6214614;23;20012;-76
2023/02/24 09:54:23;;;;;;;35.55;25.63;;;15.90;76.30;;;;;;6214948;23;20020;-77
2023/02/24 09:57:07;;;;;;;37.22;23.60;;;16.00;76.00;;;;;;6214586;23;20004;-77
2023/02/24 10:00:23;;;;;;;30.95;23.30;;;16.00;75.60;;;;;;6188699;23;20018;-77
2023/02/24 10:03:18;;;;;;;21.92;14.88;;;16.10;75.60;;;;;;6215034;23;20351;-76
2023/02/24 10:06:19;;;;;;;17.33;11.77;;;16.10;75.90;;;;;;6213915;23;20066;-74
2023/02/24 10:09:14;;;;;;;17.02;12.52;;;16.20;75.50;;;;;;6166335;23;20008;-77
2023/02/24 10:12:10;;;;;;;18.23;12.50;;;16.30;75.50;;;;;;6204405;23;20016;-78
2023/02/24 10:15:17;;;;;;;15.80;11.27;;;16.30;74.70;;;;;;6195822;23;20042;-78
2023/02/24 10:17:46;;;;;;;20.80;11.43;;;16.40;74.80;;;;;;6215052;23;20400;-75
2023/02/24 10:20:38;;;;;;;20.27;13.30;;;16.50;74.40;;;;;;6214700;23;20061;-78
2023/02/24 10:23:14;;;;;;;19.98;13.57;;;16.60;73.80;;;;;;6187348;23;20020;-76
2023/02/24 10:26:02;;;;;;;18.17;13.65;;;16.70;73.60;;;;;;6214882;23;20481;-77
2023/02/24 10:28:57;;;;;;;21.80;15.10;;;16.70;73.10;;;;;;6214535;23;20028;-75
2023/02/24 10:31:29;;;;;;;19.25;13.85;;;16.70;73.40;;;;;;6176003;23;20020;-76
2023/02/24 10:34:07;;;;;;;18.98;14.27;;;16.80;73.30;;;;;;6214360;23;20008;-77
2023/02/24 10:36:36;;;;;;;19.00;14.63;;;16.90;72.70;;;;;;6214452;23;20001;-76
2023/02/24 10:39:15;;;;;;;20.60;14.80;;;17.00;72.40;;;;;;6214183;23;20430;-74
2023/02/24 10:41:55;;;;;;;24.40;16.02;;;17.10;72.50;;;;;;6214118;23;20063;-77
2023/02/24 10:44:24;;;;;;;20.50;16.05;;;17.10;72.60;;;;;;6214439;23;20032;-76
2023/02/24 10:47:11;;;;;;;24.73;17.75;;;17.10;72.30;;;;;;6212883;23;20036;-78
2023/02/24 10:49:55;;;;;;;23.30;16.25;;;17.20;72.30;;;;;;6214027;23;20363;-76
2023/02/24 10:52:49;;;;;;;26.73;16.65;;;17.20;72.10;;;;;;6214164;23;20068;-77
2023/02/24 10:58:55;;;;;;;28.02;16.25;;;17.20;71.10;;;;;;6214348;23;19954;-76
2023/02/24 11:04:42;;;;;;;23.60;15.50;;;17.30;70.80;;;;;;6214625;23;20095;-74
2023/02/24 11:07:23;;;;;;;21.30;14.75;;;17.30;70.60;;;;;;6214513;23;20001;-76
2023/02/24 11:10:10;;;;;;;23.98;14.48;;;17.40;70.90;;;;;;6214553;23;20016;-76
2023/02/24 11:18:23;;;;;;;20.52;15.15;;;17.20;69.40;;;;;;6214607;23;20015;-77
2023/02/24 11:20:54;;;;;;;21.33;13.98;;;17.30;69.50;;;;;;6215295;23;20051;-77
2023/02/24 11:23:29;;;;;;;16.45;12.48;;;17.30;69.50;;;;;;6216717;23;20001;-76
2023/02/24 11:25:59;;;;;;;20.02;13.60;;;17.40;70.00;;;;;;6216402;23;20378;-74
2023/02/24 11:28:47;;;;;;;17.30;13.15;;;17.40;68.90;;;;;;6215947;23;19996;-77
2023/02/24 11:31:41;;;;;;;17.98;13.05;;;17.50;69.90;;;;;;6215797;23;20005;-75
2023/02/24 11:34:33;;;;;;;23.45;13.13;;;17.50;69.90;;;;;;6216787;23;20016;-82
2023/02/24 11:37:13;;;;;;;18.17;12.50;;;17.60;68.80;;;;;;6181731;23;20012;-82
2023/02/24 11:39:42;;;;;;;17.83;12.45;;;17.60;68.20;;;;;;6189860;23;20353;-81
2023/02/24 11:42:35;;;;;;;21.60;12.63;;;17.70;68.40;;;;;;6189775;23;20001;-81
2023/02/24 11:45:13;;;;;;;22.10;13.03;;;17.80;67.80;;;;;;6216799;23;20016;-82
2023/02/24 11:47:51;;;;;;;19.40;13.10;;;17.90;68.40;;;;;;6189748;23;20013;-82
2023/02/24 11:50:42;;;;;;;19.45;13.38;;;18.00;67.60;;;;;;6215766;23;20007;-74
2023/02/24 11:53:23;;;;;;;18.80;13.45;;;18.10;67.50;;;;;;6215788;23;20065;-74
2023/02/24 11:56:32;;;;;;;16.92;13.45;;;18.10;67.40;;;;;;6216267;23;20430;-74
2023/02/24 11:59:18;;;;;;;20.52;13.38;;;18.10;67.40;;;;;;6216297;23;20001;-75
2023/02/24 12:02:02;;;;;;;21.58;14.80;;;18.20;67.50;;;;;;6184261;23;20030;-74
2023/02/24 12:04:33;;;;;;;28.33;16.55;;;18.20;67.30;;;;;;6184352;23;20020;-73
2023/02/24 12:06:59;;;;;;;25.50;16.42;;;18.30;66.90;;;;;;6186299;23;20008;-74
2023/02/24 12:09:35;;;;;;;19.92;14.95;;;18.40;66.60;;;;;;6185799;23;20001;-74
2023/02/24 12:12:10;;;;;;;17.92;14.48;;;18.50;66.60;;;;;;6186083;23;20055;-74
2023/02/24 12:14:52;;;;;;;26.35;14.95;;;18.50;66.20;;;;;;6186235;23;20019;-73
2023/02/24 12:17:31;;;;;;;21.35;15.50;;;18.70;66.10;;;;;;6185620;23;20001;-74
2023/02/24 12:20:04;;;;;;;18.33;14.27;;;18.80;66.20;;;;;;6185736;23;20501;-75
2023/02/24 12:22:59;;;;;;;19.02;14.48;;;18.80;65.80;;;;;;6184036;23;20474;-76
2023/02/24 12:25:30;;;;;;;20.77;14.68;;;18.70;65.90;;;;;;6185643;23;19997;-76
2023/02/24 12:28:09;;;;;;;20.88;14.02;;;18.60;66.10;;;;;;6185148;23;20009;-75
2023/02/24 12:30:47;;;;;;;19.90;15.30;;;18.60;66.30;;;;;;6185766;23;19997;-75
2023/02/24 12:33:34;;;;;;;19.13;15.00;;;18.50;66.60;;;;;;6185149;23;20009;-76
2023/02/24 12:36:38;;;;;;;22.15;16.67;;;18.50;66.00;;;;;;6184062;23;20005;-73
2023/02/24 12:39:14;;;;;;;18.40;14.93;;;18.50;66.30;;;;;;6191971;23;20009;-77
2023/02/24 12:42:05;;;;;;;26.95;22.05;;;18.70;66.90;;;;;;6186743;23;20076;-77
2023/02/24 12:44:48;;;;;;;20.75;15.63;;;18.70;66.70;;;;;;6160034;23;20064;-78
2023/02/24 12:47:36;;;;;;;21.23;16.73;;;18.70;66.40;;;;;;6186404;23;19997;-82
2023/02/24 12:50:11;;;;;;;24.55;18.15;;;18.80;66.40;;;;;;6164048;23;20236;-81
2023/02/24 12:52:49;;;;;;;22.83;17.58;;;18.90;66.20;;;;;;6186257;23;19998;-84
2023/02/24 12:55:54;;;;;;;24.67;17.83;;;19.00;66.30;;;;;;6186869;23;20005;-82
2023/02/24 12:58:27;;;;;;;25.65;16.10;;;19.00;66.00;;;;;;6184301;23;20009;-80
2023/02/24 13:01:10;;;;;;;27.50;17.40;;;19.00;65.90;;;;;;6198889;23;20063;-79
2023/02/24 13:03:54;;;;;;;20.02;17.05;;;19.10;65.40;;;;;;6215827;23;20011;-82
2023/02/24 13:06:40;;;;;;;22.30;16.58;;;19.30;65.20;;;;;;6188596;23;20092;-75
2023/02/24 13:09:21;;;;;;;21.58;17.15;;;19.40;65.10;;;;;;6215366;23;20079;-76
2023/02/24 13:12:21;;;;;;;22.75;16.50;;;19.50;64.60;;;;;;6215309;23;20104;-76
2023/02/24 13:14:48;;;;;;;22.38;17.58;;;19.50;63.10;;;;;;6215244;23;20012;-77
2023/02/24 13:17:16;;;;;;;26.45;18.33;;;19.60;64.00;;;;;;6188662;23;20086;-78
2023/02/24 13:19:46;;;;;;;24.35;18.15;;;19.50;64.20;;;;;;6188457;23;20009;-77
2023/02/24 13:22:12;;;;;;;25.17;20.55;;;19.50;64.20;;;;;;6215178;23;20051;-77
2023/02/24 13:24:58;;;;;;;24.60;19.27;;;19.40;64.80;;;;;;6215190;23;19996;-76
2023/02/24 13:27:30;;;;;;;26.42;18.35;;;19.60;63.60;;;;;;6214713;23;20004;-79
2023/02/24 13:30:21;;;;;;;25.55;20.45;;;19.70;63.60;;;;;;6213914;23;20058;-77